createdAt,value
2018-04-15T00:00:45.952Z,65.93
2018-04-15T00:03:14.287Z,78.83
2018-04-15T00:05:42.533Z,72.43
2018-04-15T00:08:11.034Z,74.53
2018-04-15T00:10:39.139Z,65.93
2018-04-15T00:13:07.223Z,68.23
2018-04-15T00:15:35.494Z,65.90
2018-04-15T00:18:03.607Z,65.67
2018-04-15T00:20:32.003Z,64.20
2018-04-15T00:23:00.377Z,64.03
2018-04-15T00:25:28.693Z,72.20
2018-04-15T00:27:56.832Z,69.27
2018-04-15T00:30:25.218Z,72.83
2018-04-15T00:32:53.317Z,72.03
2018-04-15T00:35:21.672Z,74.73
2018-04-15T00:37:50.040Z,75.83
2018-04-15T00:40:18.403Z,80.43
2018-04-15T00:42:46.657Z,69.87
2018-04-15T00:45:14.795Z,74.43
2018-04-15T00:47:42.967Z,71.17
2018-04-15T00:50:11.320Z,65.17
2018-04-15T00:52:39.670Z,74.57
2018-04-15T00:55:07.753Z,74.07
2018-04-15T00:57:35.836Z,63.10
2018-04-15T01:00:03.951Z,61.43
2018-04-15T01:02:32.025Z,62.07
2018-04-15T01:05:00.337Z,64.73
2018-04-15T01:07:28.620Z,61.27
2018-04-15T01:09:56.810Z,62.70
2018-04-15T01:12:25.114Z,64.63
2018-04-15T01:14:53.308Z,60.23
2018-04-15T01:17:21.620Z,62.73
2018-04-15T01:19:50.005Z,64.50
2018-04-15T01:22:18.333Z,68.77
2018-04-15T01:24:46.423Z,75.10
2018-04-15T01:27:14.839Z,65.20
2018-04-15T01:29:42.968Z,69.40
2018-04-15T01:32:11.277Z,70.47
2018-04-15T01:34:39.414Z,73.53
2018-04-15T01:37:07.496Z,70.57
2018-04-15T01:39:35.807Z,65.60
2018-04-15T01:42:04.086Z,63.57
2018-04-15T01:44:32.179Z,67.23
2018-04-15T01:47:00.267Z,65.50
2018-04-15T01:49:28.352Z,62.57
2018-04-15T01:51:56.655Z,64.20
2018-04-15T01:54:24.788Z,63.33
2018-04-15T01:56:53.222Z,66.50
2018-04-15T01:59:21.468Z,63.40
2018-04-15T02:01:49.661Z,68.17
2018-04-15T02:04:17.762Z,62.97
2018-04-15T02:06:46.045Z,66.90
2018-04-15T02:09:14.209Z,64.23
2018-04-15T02:11:42.519Z,76.07
2018-04-15T02:14:10.722Z,67.43
2018-04-15T02:16:39.020Z,65.53
2018-04-15T02:19:07.398Z,76.80
2018-04-15T02:21:35.686Z,70.80
2018-04-15T02:24:03.767Z,74.60
2018-04-15T02:26:31.871Z,72.23
2018-04-15T02:28:59.955Z,70.67
2018-04-15T02:31:28.043Z,69.47
2018-04-15T02:33:56.422Z,64.17
2018-04-15T02:36:24.730Z,70.60
2018-04-15T02:38:52.820Z,70.87
2018-04-15T02:41:20.895Z,68.97
2018-04-15T02:43:49.198Z,70.83
2018-04-15T02:46:17.413Z,63.17
2018-04-15T02:48:45.512Z,71.67
2018-04-15T02:51:13.830Z,71.57
2018-04-15T02:53:41.904Z,64.97
2018-04-15T02:56:10.205Z,72.00
2018-04-15T02:58:38.370Z,65.03
2018-04-15T03:01:06.648Z,66.53
2018-04-15T03:03:34.755Z,69.77
2018-04-15T03:06:03.038Z,74.40
2018-04-15T03:08:31.270Z,74.73
2018-04-15T03:10:59.557Z,73.83
2018-04-15T03:13:27.734Z,75.00
2018-04-15T03:15:55.835Z,73.33
2018-04-15T03:18:24.081Z,74.23
2018-04-15T03:20:52.176Z,75.83
2018-04-15T03:23:20.299Z,72.17
2018-04-15T03:25:48.571Z,77.20
2018-04-15T03:28:16.861Z,78.00
2018-04-15T03:30:45.132Z,76.07
2018-04-15T03:33:13.382Z,75.77
2018-04-15T03:35:41.488Z,75.50
2018-04-15T03:38:09.673Z,75.63
2018-04-15T03:40:37.786Z,78.67
2018-04-15T03:43:06.021Z,82.20
2018-04-15T03:45:34.122Z,73.03
2018-04-15T03:48:02.239Z,77.93
2018-04-15T03:50:30.542Z,79.63
2018-04-15T03:52:58.624Z,81.23
2018-04-15T03:55:26.709Z,77.50
2018-04-15T03:57:54.839Z,74.13
2018-04-15T04:00:23.219Z,71.73
2018-04-15T04:02:51.307Z,70.27
2018-04-15T04:05:19.399Z,68.37
2018-04-15T04:07:47.742Z,75.90
2018-04-15T04:10:16.092Z,72.03
2018-04-15T04:12:44.423Z,74.73
2018-04-15T04:15:12.547Z,78.43
2018-04-15T04:17:52.593Z,78.97
2018-04-15T04:20:32.675Z,74.30
2018-04-15T04:23:12.572Z,79.60
2018-04-15T04:25:52.465Z,72.33
2018-04-15T04:28:20.742Z,74.40
2018-04-15T04:30:49.936Z,88.80
2018-04-15T04:33:18.429Z,78.13
2018-04-15T04:35:46.556Z,73.03
2018-04-15T04:38:14.668Z,72.27
2018-04-15T04:40:43.116Z,75.83
2018-04-15T04:43:11.392Z,77.87
2018-04-15T04:45:39.484Z,73.73
2018-04-15T04:48:08.129Z,79.87
2018-04-15T04:50:36.246Z,69.33
2018-04-15T04:53:04.569Z,71.80
2018-04-15T04:55:33.276Z,69.50
2018-04-15T04:58:01.534Z,68.37
2018-04-15T05:00:29.882Z,73.93
2018-04-15T05:02:58.251Z,71.97
2018-04-15T05:05:26.559Z,71.27
2018-04-15T05:07:54.937Z,65.97
2018-04-15T05:10:23.257Z,67.27
2018-04-15T05:12:51.665Z,69.33
2018-04-15T05:15:20.090Z,72.77
2018-04-15T05:17:48.787Z,73.60
2018-04-15T05:20:16.976Z,70.60
2018-04-15T05:22:45.324Z,78.50
2018-04-15T05:25:13.486Z,76.83
2018-04-15T05:27:41.865Z,70.00
2018-04-15T05:30:10.113Z,77.40
2018-04-15T05:32:38.748Z,77.27
2018-04-15T05:35:07.080Z,84.73
2018-04-15T05:37:35.425Z,77.63
2018-04-15T05:40:03.745Z,76.13
2018-04-15T05:42:32.082Z,77.93
2018-04-15T05:45:00.230Z,74.67
2018-04-15T05:47:28.459Z,70.23
2018-04-15T05:49:56.693Z,72.13
2018-04-15T05:52:25.157Z,74.07
2018-04-15T05:54:53.474Z,79.77
2018-04-15T05:57:21.634Z,74.90
2018-04-15T05:59:50.037Z,80.03
2018-04-15T06:02:18.459Z,73.63
2018-04-15T06:04:46.658Z,70.77
2018-04-15T06:07:15.129Z,76.83
2018-04-15T06:09:43.679Z,80.20
2018-04-15T06:12:11.839Z,80.83
2018-04-15T06:14:40.139Z,72.90
2018-04-15T06:17:08.413Z,71.67
2018-04-15T06:19:36.702Z,78.20
2018-04-15T06:22:05.118Z,74.03
2018-04-15T06:24:33.483Z,81.00
2018-04-15T06:27:01.758Z,71.07
2018-04-15T06:29:30.216Z,86.10
2018-04-15T06:31:58.489Z,74.33
2018-04-15T06:34:26.793Z,71.40
2018-04-15T06:36:55.099Z,80.57
2018-04-15T06:39:23.417Z,84.03
2018-04-15T06:41:51.701Z,78.17
2018-04-15T06:44:20.174Z,76.97
2018-04-15T06:46:48.449Z,74.33
2018-04-15T06:49:16.857Z,90.53
2018-04-15T06:51:45.263Z,80.83
2018-04-15T06:54:13.445Z,74.23
2018-04-15T06:56:41.898Z,74.30
2018-04-15T06:59:10.345Z,71.20
2018-04-15T07:01:38.916Z,79.73
2018-04-15T07:04:07.115Z,80.87
2018-04-15T07:06:35.253Z,80.43
2018-04-15T07:09:03.494Z,87.63
2018-04-15T07:11:31.947Z,89.70
2018-04-15T07:14:00.407Z,79.43
2018-04-15T07:16:28.721Z,85.70
2018-04-15T07:18:57.161Z,81.20
2018-04-15T07:21:25.747Z,74.13
2018-04-15T07:23:53.862Z,85.57
2018-04-15T07:26:22.214Z,75.57
2018-04-15T07:28:50.850Z,69.67
2018-04-15T07:31:19.302Z,74.73
2018-04-15T07:33:47.677Z,79.57
2018-04-15T07:36:15.878Z,85.17
2018-04-15T07:38:44.106Z,78.03
2018-04-15T07:41:12.529Z,70.97
2018-04-15T07:43:40.942Z,76.17
2018-04-15T07:46:09.304Z,80.77
2018-04-15T07:48:37.896Z,79.93
2018-04-15T07:51:06.009Z,78.43
2018-04-15T07:53:34.159Z,71.20
2018-04-15T07:56:02.584Z,82.83
2018-04-15T07:58:31.207Z,79.70
2018-04-15T08:00:59.524Z,82.90
2018-04-15T08:03:28.163Z,74.00
2018-04-15T08:05:56.515Z,76.60
2018-04-15T08:08:24.643Z,85.13
2018-04-15T08:10:53.100Z,90.33
2018-04-15T08:13:21.225Z,78.83
2018-04-15T08:15:49.557Z,78.47
2018-04-15T08:18:17.925Z,85.60
2018-04-15T08:20:46.189Z,87.13
2018-04-15T08:23:14.346Z,81.07
2018-04-15T08:25:42.753Z,79.40
2018-04-15T08:28:11.170Z,88.87
2018-04-15T08:30:39.657Z,79.93
2018-04-15T08:33:07.907Z,89.40
2018-04-15T08:35:36.106Z,84.67
2018-04-15T08:38:04.227Z,81.57
2018-04-15T08:40:32.336Z,73.20
2018-04-15T08:43:00.997Z,80.93
2018-04-15T08:45:29.506Z,86.90
2018-04-15T08:47:58.367Z,82.73
2018-04-15T08:50:26.782Z,85.47
2018-04-15T08:52:55.263Z,83.47
2018-04-15T08:55:23.496Z,71.87
2018-04-15T08:57:52.208Z,77.80
2018-04-15T09:00:20.830Z,75.03
2018-04-15T09:02:49.302Z,74.47
2018-04-15T09:05:17.767Z,80.97
2018-04-15T09:07:46.041Z,92.50
2018-04-15T09:10:14.497Z,83.33
2018-04-15T09:12:42.758Z,90.33
2018-04-15T09:15:11.241Z,91.87
2018-04-15T09:17:39.388Z,92.40
2018-04-15T09:20:07.702Z,86.57
2018-04-15T09:22:36.134Z,78.70
2018-04-15T09:25:04.349Z,79.40
2018-04-15T09:27:32.564Z,85.87
2018-04-15T09:30:01.212Z,92.00
2018-04-15T09:32:29.345Z,84.00
2018-04-15T09:34:57.638Z,82.97
2018-04-15T09:37:26.022Z,91.43
2018-04-15T09:39:54.533Z,94.77
2018-04-15T09:42:23.041Z,95.03
2018-04-15T09:44:51.537Z,85.37
2018-04-15T09:47:19.762Z,89.00
2018-04-15T09:49:48.151Z,86.20
2018-04-15T09:52:16.258Z,83.80
2018-04-15T09:54:44.607Z,92.77
2018-04-15T09:57:13.302Z,88.17
2018-04-15T09:59:41.635Z,88.27
2018-04-15T10:02:09.769Z,81.07
2018-04-15T10:04:38.490Z,80.43
2018-04-15T10:07:07.047Z,80.33
2018-04-15T10:09:35.265Z,89.13
2018-04-15T10:12:04.228Z,83.00
2018-04-15T10:14:32.361Z,82.10
2018-04-15T10:17:00.511Z,82.50
2018-04-15T10:19:28.667Z,77.73
2018-04-15T10:21:56.810Z,71.83
2018-04-15T10:24:25.212Z,66.20
2018-04-15T10:26:53.551Z,71.67
2018-04-15T10:29:22.184Z,72.77
2018-04-15T10:31:50.607Z,63.70
2018-04-15T10:34:18.925Z,61.00
2018-04-15T10:36:47.361Z,56.53
2018-04-15T10:39:15.733Z,52.33
2018-04-15T10:41:44.120Z,61.13
2018-04-15T10:44:12.281Z,57.20
2018-04-15T10:46:40.851Z,63.20
2018-04-15T10:49:09.237Z,55.27
2018-04-15T10:51:37.472Z,52.40
2018-04-15T10:54:05.954Z,51.00
2018-04-15T10:56:34.436Z,41.33
2018-04-15T10:59:02.738Z,43.13
2018-04-15T11:01:30.948Z,40.80
2018-04-15T11:03:59.153Z,48.00
2018-04-15T11:06:27.238Z,57.27
2018-04-15T11:08:55.683Z,55.87
2018-04-15T11:11:23.775Z,51.50
2018-04-15T11:13:52.102Z,51.30
2018-04-15T11:16:20.534Z,54.37
2018-04-15T11:18:48.830Z,51.37
2018-04-15T11:21:16.955Z,59.57
2018-04-15T11:23:45.313Z,55.97
2018-04-15T11:26:13.594Z,65.63
2018-04-15T11:28:41.725Z,66.47
2018-04-15T11:31:09.884Z,64.83
2018-04-15T11:33:38.466Z,50.90
2018-04-15T11:36:06.889Z,60.33
2018-04-15T11:38:35.329Z,59.43
2018-04-15T11:41:03.579Z,64.73
2018-04-15T11:43:32.001Z,61.73
2018-04-15T11:46:00.889Z,59.67
2018-04-15T11:48:29.143Z,62.30
2018-04-15T11:50:57.565Z,50.70
2018-04-15T11:53:25.924Z,56.50
2018-04-15T11:55:54.262Z,48.87
2018-04-15T11:58:22.616Z,50.90
2018-04-15T12:00:50.983Z,53.27
2018-04-15T12:03:19.255Z,51.73
2018-04-15T12:05:47.378Z,35.63
2018-04-15T12:08:15.539Z,36.73
2018-04-15T12:10:43.645Z,46.90
2018-04-15T12:13:11.961Z,40.40
2018-04-15T12:15:40.424Z,36.60
2018-04-15T12:18:08.639Z,31.77
2018-04-15T12:20:37.101Z,29.17
2018-04-15T12:23:05.645Z,33.47
2018-04-15T12:25:34.190Z,37.43
2018-04-15T12:28:02.573Z,41.70
2018-04-15T12:30:30.988Z,41.20
2018-04-15T12:33:00.167Z,36.57
2018-04-15T12:35:28.401Z,37.80
2018-04-15T12:37:56.848Z,34.87
2018-04-15T12:40:25.253Z,32.23
2018-04-15T12:42:53.906Z,36.00
2018-04-15T12:45:22.284Z,33.17
2018-04-15T12:47:50.899Z,34.57
2018-04-15T12:50:19.359Z,36.93
2018-04-15T12:52:47.718Z,39.67
2018-04-15T12:55:15.989Z,32.93
2018-04-15T12:57:44.118Z,30.23
2018-04-15T13:00:12.313Z,33.53
2018-04-15T13:02:40.765Z,30.17
2018-04-15T13:05:09.171Z,33.60
2018-04-15T13:07:37.619Z,29.77
2018-04-15T13:10:05.963Z,27.23
2018-04-15T13:12:34.260Z,30.60
2018-04-15T13:15:02.426Z,25.30
2018-04-15T13:17:30.995Z,27.43
2018-04-15T13:19:59.443Z,24.63
2018-04-15T13:22:27.855Z,23.27
2018-04-15T13:24:55.989Z,18.80
2018-04-15T13:27:24.222Z,19.63
2018-04-15T13:29:52.349Z,19.33
2018-04-15T13:32:20.703Z,20.60
2018-04-15T13:34:48.794Z,22.47
2018-04-15T13:37:16.944Z,21.03
2018-04-15T13:39:45.300Z,23.43
2018-04-15T13:42:13.651Z,25.80
2018-04-15T13:44:42.271Z,22.03
2018-04-15T13:47:10.682Z,24.70
2018-04-15T13:49:38.953Z,23.83
2018-04-15T13:52:07.293Z,22.20
2018-04-15T13:54:35.452Z,23.60
2018-04-15T13:57:03.667Z,23.70
2018-04-15T13:59:32.120Z,25.57
2018-04-15T14:02:00.413Z,24.67
2018-04-15T14:04:28.801Z,22.77
2018-04-15T14:06:57.052Z,24.13
2018-04-15T14:09:25.383Z,22.30
2018-04-15T14:11:53.731Z,23.53
2018-04-15T14:14:22.758Z,25.80
2018-04-15T14:16:51.320Z,23.33
2018-04-15T14:19:19.440Z,21.30
2018-04-15T14:21:47.755Z,22.97
2018-04-15T14:24:16.206Z,23.27
2018-04-15T14:26:44.345Z,21.30
2018-04-15T14:29:12.673Z,21.37
2018-04-15T14:31:41.118Z,24.37
2018-04-15T14:34:09.378Z,23.00
2018-04-15T14:36:37.549Z,23.67
2018-04-15T14:39:06.896Z,21.00
2018-04-15T14:41:35.346Z,19.70
2018-04-15T14:44:03.693Z,21.10
2018-04-15T14:46:32.085Z,21.07
2018-04-15T14:49:00.517Z,21.90
2018-04-15T14:51:28.854Z,23.30
2018-04-15T14:53:56.975Z,20.00
2018-04-15T14:56:25.871Z,19.33
2018-04-15T14:58:54.183Z,20.07
2018-04-15T15:01:22.294Z,17.47
2018-04-15T15:03:50.777Z,18.83
2018-04-15T15:06:18.995Z,21.67
2018-04-15T15:08:47.448Z,17.40
2018-04-15T15:11:15.749Z,20.17
2018-04-15T15:13:43.952Z,20.53
2018-04-15T15:16:12.329Z,17.50
2018-04-15T15:18:40.736Z,22.27
2018-04-15T15:21:09.010Z,18.27
2018-04-15T15:23:37.176Z,19.77
2018-04-15T15:26:05.495Z,19.27
2018-04-15T15:28:33.767Z,17.23
2018-04-15T15:31:02.268Z,20.20
2018-04-15T15:33:30.757Z,18.40
2018-04-15T15:35:58.980Z,19.83
2018-04-15T15:38:27.472Z,20.03
2018-04-15T15:40:55.806Z,20.13
2018-04-15T15:43:24.121Z,19.07
2018-04-15T15:45:52.448Z,19.40
2018-04-15T15:48:20.838Z,21.80
2018-04-15T15:50:49.296Z,20.43
2018-04-15T15:53:17.674Z,16.73
2018-04-15T15:55:46.155Z,19.77
2018-04-15T15:58:14.386Z,20.30
2018-04-15T16:00:42.788Z,21.40
2018-04-15T16:03:11.257Z,20.83
2018-04-15T16:05:39.494Z,17.57
2018-04-15T16:08:07.923Z,18.23
2018-04-15T16:10:36.231Z,18.80
2018-04-15T16:13:04.337Z,19.23
2018-04-15T16:15:32.808Z,19.23
2018-04-15T16:18:01.146Z,19.50
2018-04-15T16:20:29.239Z,21.40
2018-04-15T16:22:57.675Z,19.47
2018-04-15T16:25:25.976Z,20.13
2018-04-15T16:27:54.085Z,20.23
2018-04-15T16:30:22.786Z,19.63
2018-04-15T16:32:51.577Z,21.37
2018-04-15T16:35:20.119Z,24.27
2018-04-15T16:37:48.766Z,21.27
2018-04-15T16:40:17.085Z,24.57
2018-04-15T16:42:45.493Z,20.57
2018-04-15T16:45:14.259Z,22.57
2018-04-15T16:47:42.603Z,24.80
2018-04-15T16:50:11.009Z,22.60
2018-04-15T16:52:39.634Z,21.47
2018-04-15T16:55:07.952Z,21.87
2018-04-15T16:57:36.132Z,23.03
2018-04-15T17:00:04.461Z,20.77
2018-04-15T17:02:32.904Z,20.57
2018-04-15T17:05:01.273Z,21.73
2018-04-15T17:07:29.575Z,22.77
2018-04-15T17:09:58.040Z,23.63
2018-04-15T17:12:26.226Z,20.57
2018-04-15T17:14:54.483Z,22.83
2018-04-15T17:17:22.861Z,20.93
2018-04-15T17:19:51.292Z,22.00
2018-04-15T17:22:19.858Z,20.87
2018-04-15T17:24:48.547Z,22.90
2018-04-15T17:27:16.994Z,23.97
2018-04-15T17:29:45.372Z,25.43
2018-04-15T17:32:13.784Z,23.67
2018-04-15T17:34:42.073Z,21.93
2018-04-15T17:37:10.501Z,20.13
2018-04-15T17:39:38.760Z,22.37
2018-04-15T17:42:07.206Z,21.90
2018-04-15T17:44:35.356Z,18.67
2018-04-15T17:47:03.876Z,19.17
2018-04-15T17:49:32.761Z,20.30
2018-04-15T17:52:01.340Z,21.47
2018-04-15T17:54:29.448Z,19.50
2018-04-15T17:56:57.799Z,22.33
2018-04-15T17:59:26.018Z,21.90
2018-04-15T18:01:54.211Z,20.20
2018-04-15T18:04:23.375Z,22.13
2018-04-15T18:06:51.618Z,21.60
2018-04-15T18:09:19.712Z,21.97
2018-04-15T18:11:47.857Z,23.13
2018-04-15T18:14:16.097Z,23.63
2018-04-15T18:16:44.481Z,22.13
2018-04-15T18:19:12.887Z,22.90
2018-04-15T18:21:41.084Z,23.00
2018-04-15T18:24:09.501Z,25.73
2018-04-15T18:26:37.684Z,23.23
2018-04-15T18:29:06.062Z,22.53
2018-04-15T18:31:34.180Z,25.07
2018-04-15T18:34:02.276Z,22.63
2018-04-15T18:36:30.536Z,25.40
2018-04-15T18:38:58.906Z,23.50
2018-04-15T18:41:26.968Z,23.73
2018-04-15T18:43:55.084Z,23.77
2018-04-15T18:46:23.176Z,29.67
2018-04-15T18:48:51.271Z,46.70
2018-04-15T18:51:22.037Z,49.03
2018-04-15T18:53:50.160Z,27.07
2018-04-15T18:56:18.527Z,31.33
2018-04-15T18:58:46.913Z,28.63
2018-04-15T19:01:15.244Z,27.63
2018-04-15T19:03:43.368Z,28.20
2018-04-15T19:06:11.602Z,25.40
2018-04-15T19:08:39.744Z,27.23
2018-04-15T19:11:07.850Z,30.90
2018-04-15T19:13:36.026Z,24.63
2018-04-15T19:16:04.311Z,28.27
2018-04-15T19:18:32.419Z,28.77
2018-04-15T19:21:00.526Z,29.77
2018-04-15T19:23:28.924Z,29.47
2018-04-15T19:25:57.245Z,29.03
2018-04-15T19:28:25.351Z,26.77
2018-04-15T19:30:53.449Z,29.67
2018-04-15T19:33:21.773Z,24.33
2018-04-15T19:35:50.140Z,26.87
2018-04-15T19:38:18.505Z,28.23
2018-04-15T19:40:46.861Z,29.90
2018-04-15T19:43:14.946Z,26.57
2018-04-15T19:45:43.237Z,27.17
2018-04-15T19:48:11.348Z,27.30
2018-04-15T19:50:39.470Z,25.93
2018-04-15T19:53:07.881Z,23.93
2018-04-15T19:55:35.983Z,25.90
2018-04-15T19:58:04.229Z,24.60
2018-04-15T20:00:32.349Z,25.57
2018-04-15T20:03:00.654Z,23.17
2018-04-15T20:05:28.783Z,22.87
2018-04-15T20:07:57.083Z,27.80
2018-04-15T20:10:25.186Z,26.37
2018-04-15T20:12:53.272Z,23.53
2018-04-15T20:15:21.362Z,25.53
2018-04-15T20:17:49.473Z,25.23
2018-04-15T20:20:17.605Z,27.43
2018-04-15T20:22:45.710Z,25.27
2018-04-15T20:25:13.923Z,22.40
2018-04-15T20:27:42.022Z,25.03
2018-04-15T20:30:10.384Z,24.80
2018-04-15T20:32:38.445Z,22.20
2018-04-15T20:35:06.549Z,27.57
2018-04-15T20:37:34.640Z,22.33
2018-04-15T20:40:02.733Z,24.23
2018-04-15T20:42:30.997Z,24.30
2018-04-15T20:44:59.105Z,23.63
2018-04-15T20:47:27.194Z,25.03
2018-04-15T20:49:55.600Z,24.87
2018-04-15T20:52:23.908Z,25.40
2018-04-15T20:54:52.082Z,25.23
2018-04-15T20:57:20.188Z,23.60
2018-04-15T20:59:48.520Z,22.90
2018-04-15T21:02:16.924Z,25.60
2018-04-15T21:04:45.142Z,25.73
2018-04-15T21:07:13.287Z,27.53
2018-04-15T21:09:41.373Z,25.70
2018-04-15T21:12:09.794Z,27.03
2018-04-15T21:14:38.086Z,25.97
2018-04-15T21:17:06.234Z,28.43
2018-04-15T21:19:34.609Z,30.60
2018-04-15T21:22:02.711Z,28.50
2018-04-15T21:24:30.818Z,27.93
2018-04-15T21:26:58.915Z,31.20
2018-04-15T21:29:27.108Z,32.23
2018-04-15T21:31:55.290Z,27.03
2018-04-15T21:34:23.401Z,27.93
2018-04-15T21:36:51.756Z,27.90
2018-04-15T21:39:20.102Z,30.47
2018-04-15T21:41:48.413Z,27.97
2018-04-15T21:44:16.500Z,30.77
2018-04-15T21:46:44.650Z,29.67
2018-04-15T21:49:13.027Z,28.53
2018-04-15T21:51:41.292Z,26.27
2018-04-15T21:54:09.610Z,29.70
2018-04-15T21:56:37.783Z,29.60
2018-04-15T21:59:06.219Z,30.53
2018-04-15T22:01:34.504Z,31.47
2018-04-15T22:04:02.867Z,30.57
2018-04-15T22:06:32.217Z,28.00
2018-04-15T22:09:00.545Z,32.37
2018-04-15T22:11:40.290Z,30.07
2018-04-15T22:14:08.402Z,30.00
2018-04-15T22:16:36.745Z,32.97
2018-04-15T22:19:04.841Z,36.40
2018-04-15T22:21:33.045Z,35.90
2018-04-15T22:24:01.153Z,35.77
2018-04-15T22:26:29.471Z,40.37
2018-04-15T22:28:57.572Z,40.40
2018-04-15T22:31:25.666Z,34.53
2018-04-15T22:33:53.768Z,33.07
2018-04-15T22:36:22.116Z,34.80
2018-04-15T22:38:50.512Z,37.73
2018-04-15T22:41:18.802Z,30.33
2018-04-15T22:43:46.949Z,33.80
2018-04-15T22:46:15.061Z,35.20
2018-04-15T22:48:45.581Z,30.80
2018-04-15T22:51:13.673Z,34.93
2018-04-15T22:53:41.913Z,34.63
2018-04-15T22:56:10.381Z,34.70
2018-04-15T22:58:44.422Z,39.67
2018-04-15T23:01:12.631Z,39.40
2018-04-15T23:03:40.949Z,34.77
2018-04-15T23:06:09.379Z,40.97
2018-04-15T23:08:37.459Z,44.47
2018-04-15T23:11:05.831Z,39.27
2018-04-15T23:13:34.042Z,36.30
2018-04-15T23:16:02.133Z,31.27
2018-04-15T23:18:30.319Z,32.00
2018-04-15T23:20:58.470Z,32.37
2018-04-15T23:23:26.837Z,37.20
2018-04-15T23:25:55.184Z,37.23
2018-04-15T23:28:23.601Z,33.30
2018-04-15T23:30:51.693Z,34.37
2018-04-15T23:33:20.046Z,36.17
2018-04-15T23:35:48.207Z,35.20
2018-04-15T23:38:16.825Z,31.90
2018-04-15T23:40:45.187Z,37.77
2018-04-15T23:43:13.496Z,36.77
2018-04-15T23:45:41.576Z,31.97
2018-04-15T23:48:09.952Z,34.07
2018-04-15T23:50:38.094Z,36.07
2018-04-15T23:53:06.343Z,36.80
2018-04-15T23:55:34.499Z,34.33
2018-04-15T23:58:02.906Z,38.33
